createdAt,value
2016-12-18T00:00:40.471Z,0
2016-12-18T00:01:40.460Z,0
2016-12-18T00:02:40.446Z,0
2016-12-18T00:03:40.435Z,0
2016-12-18T00:04:40.425Z,0
2016-12-18T00:05:40.407Z,0
2016-12-18T00:06:40.397Z,0
2016-12-18T00:07:40.385Z,0
2016-12-18T00:08:40.373Z,0
2016-12-18T00:09:40.659Z,0
2016-12-18T00:10:40.344Z,0
2016-12-18T00:11:40.332Z,0
2016-12-18T00:12:40.319Z,0
2016-12-18T00:13:40.307Z,0
2016-12-18T00:14:40.299Z,0
2016-12-18T00:15:40.279Z,0
2016-12-18T00:16:40.291Z,0
2016-12-18T00:17:40.257Z,0
2016-12-18T00:18:40.240Z,0
2016-12-18T00:19:40.227Z,0
2016-12-18T00:20:40.215Z,0
2016-12-18T00:21:40.207Z,0
2016-12-18T00:22:40.224Z,0
2016-12-18T00:23:40.481Z,0
2016-12-18T00:24:40.167Z,0
2016-12-18T00:25:40.161Z,0
2016-12-18T00:26:40.139Z,0
2016-12-18T00:27:40.425Z,0
2016-12-18T00:28:40.116Z,0
2016-12-18T00:29:40.099Z,0
2016-12-18T00:30:40.089Z,0
2016-12-18T00:31:40.077Z,0
2016-12-18T00:32:40.069Z,0
2016-12-18T00:33:40.088Z,0
2016-12-18T00:34:40.036Z,0
2016-12-18T00:35:40.026Z,0
2016-12-18T00:36:40.012Z,0
2016-12-18T00:37:40.001Z,0
2016-12-18T00:38:40.016Z,0
2016-12-18T00:39:39.980Z,0
2016-12-18T00:40:39.963Z,0
2016-12-18T00:41:39.951Z,0
2016-12-18T00:42:39.933Z,0
2016-12-18T00:43:40.234Z,0
2016-12-18T00:44:40.213Z,0
2016-12-18T00:45:39.901Z,0
2016-12-18T00:46:39.884Z,0
2016-12-18T00:47:39.869Z,0
2016-12-18T00:48:39.858Z,0
2016-12-18T00:49:39.844Z,0
2016-12-18T00:50:39.835Z,0
2016-12-18T00:51:40.150Z,0
2016-12-18T00:52:39.807Z,0
2016-12-18T00:53:39.800Z,0
2016-12-18T00:54:39.781Z,0
2016-12-18T00:55:39.770Z,0
2016-12-18T00:56:39.758Z,0
2016-12-18T00:57:39.744Z,0
2016-12-18T00:58:39.761Z,0
2016-12-18T00:59:39.725Z,0
2016-12-18T01:00:39.704Z,0
2016-12-18T01:01:39.698Z,0
2016-12-18T01:02:39.678Z,0
2016-12-18T01:03:39.664Z,0
2016-12-18T01:04:39.655Z,0
2016-12-18T01:05:39.649Z,0
2016-12-18T01:06:39.636Z,0
2016-12-18T01:07:39.621Z,0
2016-12-18T01:08:39.622Z,0
2016-12-18T01:09:39.593Z,0
2016-12-18T01:10:39.581Z,0
2016-12-18T01:11:39.569Z,0
2016-12-18T01:12:39.555Z,0
2016-12-18T01:13:39.539Z,0
2016-12-18T01:14:39.526Z,0
2016-12-18T01:15:39.518Z,0
2016-12-18T01:16:39.506Z,0
2016-12-18T01:17:39.488Z,0
2016-12-18T01:18:39.475Z,0
2016-12-18T01:19:39.471Z,0
2016-12-18T01:20:39.455Z,0
2016-12-18T01:21:39.435Z,0
2016-12-18T01:22:39.430Z,0
2016-12-18T01:23:39.723Z,0
2016-12-18T01:24:39.428Z,0
2016-12-18T01:25:39.389Z,0
2016-12-18T01:26:39.380Z,0
2016-12-18T01:27:39.362Z,0
2016-12-18T01:28:39.652Z,0
2016-12-18T01:29:39.340Z,0
2016-12-18T01:30:39.323Z,0
2016-12-18T01:31:39.312Z,0
2016-12-18T01:32:39.302Z,0
2016-12-18T01:33:39.291Z,0
2016-12-18T01:34:39.279Z,0
2016-12-18T01:35:39.264Z,0
2016-12-18T01:36:39.554Z,0
2016-12-18T01:37:39.238Z,0
2016-12-18T01:38:39.224Z,0
2016-12-18T01:39:39.216Z,0
2016-12-18T01:40:39.206Z,0
2016-12-18T01:41:39.186Z,0
2016-12-18T01:42:39.474Z,0
2016-12-18T01:43:39.163Z,0
2016-12-18T01:44:39.150Z,0
2016-12-18T01:45:39.135Z,0
2016-12-18T01:46:39.128Z,0
2016-12-18T01:47:39.113Z,0
2016-12-18T01:48:39.100Z,0
2016-12-18T01:49:39.087Z,0
2016-12-18T01:50:39.071Z,0
2016-12-18T01:51:39.062Z,0
2016-12-18T01:52:39.045Z,0
2016-12-18T01:53:39.348Z,0
2016-12-18T01:54:39.025Z,0
2016-12-18T01:55:39.009Z,0
2016-12-18T01:56:39.304Z,0
2016-12-18T01:57:39.290Z,0
2016-12-18T01:58:38.973Z,0
2016-12-18T01:59:38.959Z,0
2016-12-18T02:00:38.953Z,0
2016-12-18T02:01:38.935Z,0
2016-12-18T02:02:38.924Z,0
2016-12-18T02:03:38.915Z,0
2016-12-18T02:04:38.900Z,0
2016-12-18T02:05:38.890Z,0
2016-12-18T02:06:38.874Z,0
2016-12-18T02:07:38.863Z,0
2016-12-18T02:08:39.155Z,0
2016-12-18T02:09:38.837Z,0
2016-12-18T02:10:38.835Z,0
2016-12-18T02:11:38.812Z,0
2016-12-18T02:12:39.107Z,0
2016-12-18T02:13:38.787Z,0
2016-12-18T02:14:38.776Z,0
2016-12-18T02:15:38.763Z,0
2016-12-18T02:16:38.751Z,0
2016-12-18T02:17:38.737Z,0
2016-12-18T02:18:38.724Z,0
2016-12-18T02:19:38.710Z,0
2016-12-18T02:20:38.702Z,0
2016-12-18T02:21:38.689Z,0
2016-12-18T02:22:38.674Z,0
2016-12-18T02:23:38.660Z,0
2016-12-18T02:24:38.650Z,0
2016-12-18T02:25:38.641Z,0
2016-12-18T02:26:38.623Z,0
2016-12-18T02:27:38.613Z,0
2016-12-18T02:28:38.600Z,0
2016-12-18T02:29:38.589Z,0
2016-12-18T02:30:38.577Z,0
2016-12-18T02:31:38.566Z,0
2016-12-18T02:32:38.551Z,0
2016-12-18T02:33:38.846Z,0
2016-12-18T02:34:38.529Z,0
2016-12-18T02:35:38.516Z,0
2016-12-18T02:36:38.503Z,0
2016-12-18T02:37:38.485Z,0
2016-12-18T02:38:38.479Z,0
2016-12-18T02:39:38.464Z,0
2016-12-18T02:40:38.758Z,0
2016-12-18T02:41:38.750Z,0
2016-12-18T02:42:38.732Z,0
2016-12-18T02:43:38.416Z,0
2016-12-18T02:44:38.406Z,0
2016-12-18T02:45:38.393Z,0
2016-12-18T02:46:38.384Z,0
2016-12-18T02:47:38.400Z,0
2016-12-18T02:48:38.354Z,0
2016-12-18T02:49:38.342Z,0
2016-12-18T02:50:38.335Z,0
2016-12-18T02:51:38.320Z,0
2016-12-18T02:52:38.306Z,0
2016-12-18T02:53:38.292Z,0
2016-12-18T02:54:38.589Z,0
2016-12-18T02:55:38.272Z,0
2016-12-18T02:56:38.254Z,0
2016-12-18T02:57:38.245Z,0
2016-12-18T02:58:38.244Z,0
2016-12-18T02:59:38.217Z,0
2016-12-18T03:00:38.214Z,0
2016-12-18T03:01:38.196Z,0
2016-12-18T03:02:38.183Z,0
2016-12-18T03:03:38.170Z,0
2016-12-18T03:04:38.161Z,0
2016-12-18T03:05:38.149Z,0
2016-12-18T03:06:38.136Z,0
2016-12-18T03:07:38.124Z,0
2016-12-18T03:08:38.110Z,0
2016-12-18T03:09:38.098Z,0
2016-12-18T03:10:38.086Z,0
2016-12-18T03:11:38.071Z,0
2016-12-18T03:12:38.060Z,0
2016-12-18T03:13:38.354Z,0
2016-12-18T03:14:38.066Z,0
2016-12-18T03:15:38.027Z,0
2016-12-18T03:16:38.011Z,0
2016-12-18T03:17:38.005Z,0
2016-12-18T03:18:38.292Z,0
2016-12-18T03:19:37.976Z,0
2016-12-18T03:20:37.966Z,0
2016-12-18T03:21:37.953Z,0
2016-12-18T03:22:37.941Z,0
2016-12-18T03:23:37.926Z,0
2016-12-18T03:24:37.947Z,0
2016-12-18T03:25:37.902Z,0
2016-12-18T03:26:37.890Z,0
2016-12-18T03:27:37.879Z,0
2016-12-18T03:28:37.864Z,0
2016-12-18T03:29:37.858Z,0
2016-12-18T03:30:37.845Z,0
2016-12-18T03:31:37.831Z,0
2016-12-18T03:32:37.819Z,0
2016-12-18T03:33:37.806Z,0
2016-12-18T03:34:37.795Z,0
2016-12-18T03:35:37.783Z,0
2016-12-18T03:36:37.802Z,0
2016-12-18T03:37:37.754Z,0
2016-12-18T03:38:37.746Z,0
2016-12-18T03:39:37.731Z,0
2016-12-18T03:40:37.723Z,0
2016-12-18T03:41:37.709Z,0
2016-12-18T03:42:37.699Z,0
2016-12-18T03:43:37.687Z,0
2016-12-18T03:44:37.673Z,0
2016-12-18T03:45:37.972Z,0
2016-12-18T03:46:37.652Z,0
2016-12-18T03:47:37.637Z,0
2016-12-18T03:48:37.627Z,0
2016-12-18T03:49:37.613Z,0
2016-12-18T03:50:37.602Z,0
2016-12-18T03:51:37.590Z,0
2016-12-18T03:52:37.578Z,0
2016-12-18T03:53:37.564Z,0
2016-12-18T03:54:37.550Z,0
2016-12-18T03:55:37.536Z,0
2016-12-18T03:56:37.530Z,0
2016-12-18T03:57:37.518Z,0
2016-12-18T03:58:37.503Z,0
2016-12-18T03:59:37.493Z,0
2016-12-18T04:00:37.479Z,0
2016-12-18T04:01:37.468Z,0
2016-12-18T04:02:37.457Z,0
2016-12-18T04:03:37.445Z,0
2016-12-18T04:04:37.431Z,0
2016-12-18T04:05:37.423Z,0
2016-12-18T04:06:37.405Z,0
2016-12-18T04:07:37.395Z,0
2016-12-18T04:08:37.381Z,0
2016-12-18T04:09:37.398Z,0
2016-12-18T04:10:37.362Z,0
2016-12-18T04:11:37.345Z,0
2016-12-18T04:12:37.335Z,0
2016-12-18T04:13:37.325Z,0
2016-12-18T04:14:37.311Z,0
2016-12-18T04:15:37.301Z,0
2016-12-18T04:16:37.284Z,0
2016-12-18T04:17:37.279Z,0
2016-12-18T04:18:37.260Z,0
2016-12-18T04:19:37.250Z,0
2016-12-18T04:20:37.243Z,0
2016-12-18T04:21:37.224Z,0
2016-12-18T04:22:37.213Z,0
2016-12-18T04:23:37.205Z,0
2016-12-18T04:24:37.190Z,0
2016-12-18T04:25:37.180Z,0
2016-12-18T04:26:37.165Z,0
2016-12-18T04:27:37.151Z,0
2016-12-18T04:28:37.145Z,0
2016-12-18T04:29:37.436Z,0
2016-12-18T04:30:37.116Z,0
2016-12-18T04:31:37.103Z,0
2016-12-18T04:32:37.094Z,0
2016-12-18T04:33:37.081Z,0
2016-12-18T04:34:37.066Z,0
2016-12-18T04:35:37.060Z,0
2016-12-18T04:36:37.043Z,0
2016-12-18T04:37:37.036Z,0
2016-12-18T04:38:37.021Z,0
2016-12-18T04:39:37.008Z,0
2016-12-18T04:40:37.000Z,0
2016-12-18T04:41:36.987Z,0
2016-12-18T04:42:37.007Z,0
2016-12-18T04:43:36.959Z,0
2016-12-18T04:44:37.253Z,0
2016-12-18T04:45:36.942Z,0
2016-12-18T04:46:36.923Z,0
2016-12-18T04:47:36.912Z,0
2016-12-18T04:48:36.899Z,0
2016-12-18T04:49:36.894Z,0
2016-12-18T04:50:36.877Z,0
2016-12-18T04:51:36.868Z,0
2016-12-18T04:52:36.856Z,0
2016-12-18T04:53:36.846Z,0
2016-12-18T04:54:36.831Z,0
2016-12-18T04:55:36.815Z,0
2016-12-18T04:56:36.800Z,0
2016-12-18T04:57:36.791Z,0
2016-12-18T04:58:37.091Z,0
2016-12-18T04:59:36.777Z,0
2016-12-18T05:00:36.754Z,0
2016-12-18T05:01:36.747Z,0
2016-12-18T05:02:36.781Z,0
2016-12-18T05:03:36.715Z,0
2016-12-18T05:04:36.709Z,0
2016-12-18T05:05:36.695Z,0
2016-12-18T05:06:36.684Z,0
2016-12-18T05:07:36.673Z,0
2016-12-18T05:08:36.681Z,0
2016-12-18T05:09:36.647Z,0
2016-12-18T05:10:36.663Z,0
2016-12-18T05:11:36.627Z,0
2016-12-18T05:12:36.611Z,0
2016-12-18T05:13:36.599Z,0
2016-12-18T05:14:36.584Z,0
2016-12-18T05:15:36.577Z,0
2016-12-18T05:16:36.566Z,0
2016-12-18T05:17:36.549Z,0
2016-12-18T05:18:36.540Z,0
2016-12-18T05:19:36.840Z,0
2016-12-18T05:20:36.515Z,0
2016-12-18T05:21:36.504Z,0
2016-12-18T05:22:36.490Z,0
2016-12-18T05:23:36.480Z,0
2016-12-18T05:24:36.472Z,0
2016-12-18T05:25:36.461Z,0
2016-12-18T05:26:36.442Z,0
2016-12-18T05:27:36.436Z,0
2016-12-18T05:28:36.414Z,0
2016-12-18T05:29:36.406Z,0
2016-12-18T05:30:36.400Z,0
2016-12-18T05:31:36.385Z,0
2016-12-18T05:32:36.373Z,0
2016-12-18T05:33:36.362Z,0
2016-12-18T05:34:36.350Z,0
2016-12-18T05:35:36.333Z,0
2016-12-18T05:36:36.329Z,0
2016-12-18T05:37:36.310Z,0
2016-12-18T05:38:36.324Z,0
2016-12-18T05:39:36.287Z,0
2016-12-18T05:40:36.274Z,0
2016-12-18T05:41:36.266Z,0
2016-12-18T05:42:36.292Z,0
2016-12-18T05:43:36.244Z,0
2016-12-18T05:44:36.228Z,0
2016-12-18T05:45:36.215Z,0
2016-12-18T05:46:36.203Z,0
2016-12-18T05:47:36.190Z,0
2016-12-18T05:48:36.215Z,0
2016-12-18T05:49:36.168Z,0
2016-12-18T05:50:36.156Z,0
2016-12-18T05:51:36.182Z,0
2016-12-18T05:52:36.170Z,0
2016-12-18T05:53:36.118Z,0
2016-12-18T05:54:36.113Z,0
2016-12-18T05:55:36.095Z,0
2016-12-18T05:56:36.084Z,0
2016-12-18T05:57:36.098Z,0
2016-12-18T05:58:36.065Z,0
2016-12-18T05:59:36.052Z,0
2016-12-18T06:00:36.038Z,0
2016-12-18T06:01:36.023Z,0
2016-12-18T06:02:36.010Z,0
2016-12-18T06:03:35.997Z,0
2016-12-18T06:04:35.987Z,0
2016-12-18T06:05:35.978Z,0
2016-12-18T06:06:35.965Z,0
2016-12-18T06:07:35.950Z,0
2016-12-18T06:08:35.942Z,0
2016-12-18T06:09:35.928Z,0
2016-12-18T06:10:35.920Z,0
2016-12-18T06:11:35.934Z,0
2016-12-18T06:12:35.898Z,0
2016-12-18T06:13:35.881Z,0
2016-12-18T06:14:35.874Z,0
2016-12-18T06:15:35.858Z,0
2016-12-18T06:16:35.850Z,0
2016-12-18T06:17:35.835Z,0
2016-12-18T06:18:35.825Z,0
2016-12-18T06:19:35.812Z,0
2016-12-18T06:20:35.801Z,0
2016-12-18T06:21:35.789Z,0
2016-12-18T06:22:35.775Z,0
2016-12-18T06:23:35.765Z,0
2016-12-18T06:24:35.753Z,0
2016-12-18T06:25:35.741Z,0
2016-12-18T06:26:35.728Z,0
2016-12-18T06:27:35.718Z,0
2016-12-18T06:28:35.708Z,0
2016-12-18T06:29:35.701Z,0
2016-12-18T06:30:35.681Z,0
2016-12-18T06:31:35.671Z,0
2016-12-18T06:32:35.690Z,0
2016-12-18T06:33:35.681Z,0
2016-12-18T06:34:35.636Z,0
2016-12-18T06:35:35.622Z,0
2016-12-18T06:36:35.643Z,0
2016-12-18T06:37:35.600Z,0
2016-12-18T06:38:35.616Z,0
2016-12-18T06:39:35.579Z,0
2016-12-18T06:40:35.876Z,0
2016-12-18T06:41:35.554Z,0
2016-12-18T06:42:35.547Z,0
2016-12-18T06:43:35.530Z,0
2016-12-18T06:44:35.523Z,0
2016-12-18T06:45:35.505Z,0
2016-12-18T06:46:35.496Z,0
2016-12-18T06:47:35.488Z,0
2016-12-18T06:48:35.477Z,0
2016-12-18T06:49:35.460Z,0
2016-12-18T06:50:35.488Z,0
2016-12-18T06:51:35.434Z,0
2016-12-18T06:52:35.424Z,0
2016-12-18T06:53:35.415Z,0
2016-12-18T06:54:35.402Z,0
2016-12-18T06:55:35.389Z,0
2016-12-18T06:56:35.377Z,0
2016-12-18T06:57:35.692Z,0
2016-12-18T06:58:35.357Z,0
2016-12-18T06:59:35.344Z,0
2016-12-18T07:00:35.333Z,0
2016-12-18T07:01:35.325Z,0
2016-12-18T07:02:35.310Z,0
2016-12-18T07:03:35.296Z,0
2016-12-18T07:04:35.286Z,0
2016-12-18T07:05:35.280Z,0
2016-12-18T07:06:35.266Z,0
2016-12-18T07:07:35.254Z,0
2016-12-18T07:08:35.238Z,0
2016-12-18T07:09:35.228Z,0
2016-12-18T07:10:35.220Z,0
2016-12-18T07:11:35.206Z,0
2016-12-18T07:12:35.222Z,0
2016-12-18T07:13:35.181Z,0
2016-12-18T07:14:35.171Z,0
2016-12-18T07:15:35.158Z,0
2016-12-18T07:16:35.151Z,0
2016-12-18T07:17:35.136Z,0
2016-12-18T07:18:35.128Z,0
2016-12-18T07:19:35.115Z,0
2016-12-18T07:20:35.106Z,0
2016-12-18T07:21:35.090Z,0
2016-12-18T07:22:35.077Z,5
2016-12-18T07:23:35.070Z,0
2016-12-18T07:24:35.060Z,5
2016-12-18T07:25:35.045Z,5
2016-12-18T07:26:35.042Z,5
2016-12-18T07:27:35.023Z,0
2016-12-18T07:28:35.009Z,0
2016-12-18T07:29:34.997Z,0
2016-12-18T07:30:34.986Z,5
2016-12-18T07:31:34.980Z,5
2016-12-18T07:32:34.968Z,5
2016-12-18T07:33:34.950Z,5
2016-12-18T07:34:34.940Z,5
2016-12-18T07:35:34.935Z,5
2016-12-18T07:36:34.917Z,5
2016-12-18T07:37:34.908Z,5
2016-12-18T07:38:34.896Z,5
2016-12-18T07:39:34.887Z,5
2016-12-18T07:40:34.877Z,5
2016-12-18T07:41:34.862Z,5
2016-12-18T07:42:34.851Z,5
2016-12-18T07:43:34.843Z,5
2016-12-18T07:44:35.137Z,5
2016-12-18T07:45:34.819Z,5
2016-12-18T07:46:34.806Z,5
2016-12-18T07:47:34.792Z,5
2016-12-18T07:48:34.783Z,10
2016-12-18T07:49:34.787Z,10
2016-12-18T07:50:34.763Z,10
2016-12-18T07:51:34.746Z,10
2016-12-18T07:52:34.737Z,10
2016-12-18T07:53:34.755Z,10
2016-12-18T07:54:34.716Z,10
2016-12-18T07:55:34.704Z,10
2016-12-18T07:56:34.693Z,10
2016-12-18T07:57:34.683Z,15
2016-12-18T07:58:34.668Z,15
2016-12-18T07:59:34.656Z,20
2016-12-18T08:00:34.646Z,20
2016-12-18T08:01:34.635Z,25
2016-12-18T08:02:34.621Z,25
2016-12-18T08:03:34.614Z,20
2016-12-18T08:04:34.603Z,20
2016-12-18T08:05:34.597Z,15
2016-12-18T08:06:34.580Z,15
2016-12-18T08:07:34.567Z,15
2016-12-18T08:08:34.554Z,15
2016-12-18T08:09:34.544Z,15
2016-12-18T08:10:34.532Z,15
2016-12-18T08:11:34.519Z,15
2016-12-18T08:12:34.511Z,15
2016-12-18T08:13:34.503Z,15
2016-12-18T08:14:34.491Z,15
2016-12-18T08:15:34.788Z,15
2016-12-18T08:16:34.468Z,15
2016-12-18T08:17:34.453Z,15
2016-12-18T08:18:34.445Z,15
2016-12-18T08:19:34.434Z,20
2016-12-18T08:20:34.425Z,20
2016-12-18T08:21:34.413Z,25
2016-12-18T08:22:34.404Z,25
2016-12-18T08:23:34.391Z,25
2016-12-18T08:24:34.693Z,30
2016-12-18T08:25:34.366Z,30
2016-12-18T08:26:34.361Z,30
2016-12-18T08:27:34.344Z,25
2016-12-18T08:28:34.335Z,25
2016-12-18T08:29:34.324Z,25
2016-12-18T08:30:34.310Z,25
2016-12-18T08:31:34.301Z,20
2016-12-18T08:32:34.290Z,20
2016-12-18T08:33:34.280Z,20
2016-12-18T08:34:34.268Z,20
2016-12-18T08:35:34.254Z,25
2016-12-18T08:36:34.251Z,25
2016-12-18T08:37:34.268Z,25
2016-12-18T08:38:34.225Z,25
2016-12-18T08:39:34.216Z,25
2016-12-18T08:40:34.511Z,30
2016-12-18T08:41:34.191Z,35
2016-12-18T08:42:34.184Z,40
2016-12-18T08:43:34.170Z,40
2016-12-18T08:44:34.185Z,50
2016-12-18T08:45:34.153Z,55
2016-12-18T08:46:34.440Z,55
2016-12-18T08:47:34.429Z,50
2016-12-18T08:48:34.117Z,50
2016-12-18T08:49:34.409Z,50
2016-12-18T08:50:34.094Z,55
2016-12-18T08:51:34.119Z,60
2016-12-18T08:52:34.078Z,65
2016-12-18T08:53:34.067Z,65
2016-12-18T08:54:34.056Z,65
2016-12-18T08:55:34.042Z,60
2016-12-18T08:56:34.029Z,55
2016-12-18T08:57:34.049Z,55
2016-12-18T08:58:34.011Z,55
2016-12-18T08:59:33.999Z,60
2016-12-18T09:00:33.987Z,60
2016-12-18T09:01:33.975Z,55
2016-12-18T09:02:34.272Z,60
2016-12-18T09:03:34.261Z,65
2016-12-18T09:04:33.943Z,60
2016-12-18T09:05:33.933Z,60
2016-12-18T09:06:33.922Z,65
2016-12-18T09:07:33.910Z,60
2016-12-18T09:08:34.220Z,60
2016-12-18T09:09:33.889Z,55
2016-12-18T09:10:33.880Z,50
2016-12-18T09:11:33.873Z,50
2016-12-18T09:12:33.861Z,55
2016-12-18T09:13:33.848Z,60
2016-12-18T09:14:33.840Z,60
2016-12-18T09:15:33.837Z,60
2016-12-18T09:16:33.815Z,70
2016-12-18T09:17:33.806Z,65
2016-12-18T09:18:33.796Z,70
2016-12-18T09:19:33.787Z,75
2016-12-18T09:20:33.780Z,80
2016-12-18T09:21:33.761Z,80
2016-12-18T09:22:33.751Z,75
2016-12-18T09:23:33.744Z,70
2016-12-18T09:24:33.732Z,75
2016-12-18T09:25:33.725Z,75
2016-12-18T09:26:33.715Z,75
2016-12-18T09:27:33.700Z,75
2016-12-18T09:28:33.692Z,75
2016-12-18T09:29:33.682Z,85
2016-12-18T09:30:33.668Z,90
2016-12-18T09:31:33.662Z,95
2016-12-18T09:32:33.673Z,105
2016-12-18T09:33:33.644Z,110
2016-12-18T09:34:33.632Z,100
2016-12-18T09:35:33.623Z,100
2016-12-18T09:36:33.636Z,100
2016-12-18T09:37:33.595Z,85
2016-12-18T09:38:33.590Z,75
2016-12-18T09:39:33.880Z,65
2016-12-18T09:40:33.566Z,60
2016-12-18T09:41:33.554Z,60
2016-12-18T09:42:33.553Z,60
2016-12-18T09:43:33.839Z,60
2016-12-18T09:44:33.526Z,60
2016-12-18T09:45:33.816Z,55
2016-12-18T09:46:33.504Z,60
2016-12-18T09:47:33.492Z,60
2016-12-18T09:48:33.481Z,60
2016-12-18T09:49:33.476Z,60
2016-12-18T09:50:33.770Z,65
2016-12-18T09:51:33.453Z,75
2016-12-18T09:52:33.445Z,85
2016-12-18T09:53:33.434Z,90
2016-12-18T09:54:33.423Z,100
2016-12-18T09:55:33.435Z,95
2016-12-18T09:56:33.406Z,85
2016-12-18T09:57:33.395Z,80
2016-12-18T09:58:33.389Z,70
2016-12-18T09:59:33.372Z,70
2016-12-18T10:00:33.366Z,65
2016-12-18T10:01:33.355Z,75
2016-12-18T10:02:33.344Z,80
2016-12-18T10:03:33.333Z,95
2016-12-18T10:04:33.354Z,90
2016-12-18T10:05:33.329Z,90
2016-12-18T10:06:33.299Z,85
2016-12-18T10:07:33.312Z,80
2016-12-18T10:08:33.279Z,80
2016-12-18T10:09:33.271Z,80
2016-12-18T10:10:33.258Z,70
2016-12-18T10:11:33.249Z,70
2016-12-18T10:12:33.246Z,65
2016-12-18T10:13:33.229Z,65
2016-12-18T10:14:33.218Z,60
2016-12-18T10:15:33.210Z,60
2016-12-18T10:16:33.199Z,60
2016-12-18T10:17:33.190Z,60
2016-12-18T10:18:33.177Z,65
2016-12-18T10:19:33.471Z,70
2016-12-18T10:20:33.164Z,70
2016-12-18T10:21:33.152Z,70
2016-12-18T10:22:33.138Z,70
2016-12-18T10:23:33.134Z,70
2016-12-18T10:24:33.115Z,65
2016-12-18T10:25:33.112Z,60
2016-12-18T10:26:33.098Z,60
2016-12-18T10:27:33.092Z,60
2016-12-18T10:28:33.077Z,60
2016-12-18T10:29:33.069Z,65
2016-12-18T10:30:33.059Z,70
2016-12-18T10:31:33.050Z,70
2016-12-18T10:32:33.037Z,70
2016-12-18T10:33:33.027Z,75
2016-12-18T10:34:33.320Z,80
2016-12-18T10:35:33.009Z,80
2016-12-18T10:36:32.998Z,80
2016-12-18T10:37:32.991Z,75
2016-12-18T10:38:32.977Z,75
2016-12-18T10:39:32.967Z,75
2016-12-18T10:40:33.569Z,80
2016-12-18T10:41:32.953Z,75
2016-12-18T10:42:32.945Z,80
2016-12-18T10:43:32.931Z,100
2016-12-18T10:44:32.917Z,120
2016-12-18T10:45:32.908Z,125
2016-12-18T10:46:32.902Z,120
2016-12-18T10:47:32.887Z,110
2016-12-18T10:48:32.884Z,100
2016-12-18T10:49:32.868Z,95
2016-12-18T10:50:32.857Z,90
2016-12-18T10:51:33.151Z,90
2016-12-18T10:52:32.841Z,85
2016-12-18T10:53:32.829Z,80
2016-12-18T10:54:32.825Z,80
2016-12-18T10:55:32.810Z,80
2016-12-18T10:56:32.796Z,85
2016-12-18T10:57:32.787Z,95
2016-12-18T10:58:32.788Z,100
2016-12-18T10:59:32.769Z,115
2016-12-18T11:00:32.760Z,120
2016-12-18T11:01:32.751Z,115
2016-12-18T11:02:32.742Z,120
2016-12-18T11:03:32.737Z,120
2016-12-18T11:04:32.725Z,125
2016-12-18T11:05:32.715Z,115
2016-12-18T11:06:33.015Z,105
2016-12-18T11:07:32.695Z,95
2016-12-18T11:08:32.681Z,100
2016-12-18T11:09:32.672Z,100
2016-12-18T11:10:32.665Z,95
2016-12-18T11:11:32.664Z,90
2016-12-18T11:12:32.643Z,80
2016-12-18T11:13:32.636Z,75
2016-12-18T11:14:32.627Z,80
2016-12-18T11:15:32.616Z,80
2016-12-18T11:16:32.607Z,85
2016-12-18T11:17:32.596Z,95
2016-12-18T11:18:32.582Z,95
2016-12-18T11:19:32.574Z,90
2016-12-18T11:20:32.570Z,95
2016-12-18T11:21:32.557Z,100
2016-12-18T11:22:32.551Z,90
2016-12-18T11:23:32.539Z,85
2016-12-18T11:24:32.531Z,95
2016-12-18T11:25:32.556Z,95
2016-12-18T11:26:32.511Z,105
2016-12-18T11:27:32.497Z,100
2016-12-18T11:28:32.490Z,95
2016-12-18T11:29:32.478Z,95
2016-12-18T11:30:32.467Z,85
2016-12-18T11:31:32.462Z,95
2016-12-18T11:32:32.754Z,95
2016-12-18T11:33:32.441Z,95
2016-12-18T11:34:32.437Z,105
2016-12-18T11:35:32.424Z,120
2016-12-18T11:36:32.416Z,120
2016-12-18T11:37:32.412Z,120
2016-12-18T11:38:32.390Z,120
2016-12-18T11:39:32.383Z,115
2016-12-18T11:40:32.371Z,120
2016-12-18T11:41:32.368Z,120
2016-12-18T11:42:32.354Z,115
2016-12-18T11:43:32.348Z,110
2016-12-18T11:44:32.333Z,110
2016-12-18T11:45:32.328Z,110
2016-12-18T11:46:32.315Z,110
2016-12-18T11:47:32.306Z,115
2016-12-18T11:48:32.293Z,120
2016-12-18T11:49:32.286Z,110
2016-12-18T11:50:32.577Z,100
2016-12-18T11:51:32.265Z,95
2016-12-18T11:52:32.258Z,85
2016-12-18T11:53:32.246Z,80
2016-12-18T11:54:32.243Z,70
2016-12-18T11:55:32.233Z,70
2016-12-18T11:56:32.221Z,70
2016-12-18T11:57:32.247Z,60
2016-12-18T11:58:32.203Z,60
2016-12-18T11:59:32.219Z,60
2016-12-18T12:00:32.178Z,65
2016-12-18T12:01:32.174Z,70
2016-12-18T12:02:32.481Z,65
2016-12-18T12:03:32.150Z,60
2016-12-18T12:04:32.141Z,55
2016-12-18T12:05:32.433Z,55
2016-12-18T12:06:32.124Z,55
2016-12-18T12:07:32.421Z,60
2016-12-18T12:08:32.106Z,60
2016-12-18T12:09:32.096Z,60
2016-12-18T12:10:32.085Z,60
2016-12-18T12:11:32.079Z,60
2016-12-18T12:12:32.368Z,65
2016-12-18T12:13:32.056Z,60
2016-12-18T12:14:32.046Z,65
2016-12-18T12:15:32.066Z,70
2016-12-18T12:16:32.027Z,70
2016-12-18T12:17:32.019Z,70
2016-12-18T12:18:32.010Z,60
2016-12-18T12:19:32.001Z,65
2016-12-18T12:20:31.988Z,65
2016-12-18T12:21:31.981Z,65
2016-12-18T12:22:32.002Z,70
2016-12-18T12:23:31.966Z,70
2016-12-18T12:24:31.951Z,65
2016-12-18T12:25:31.941Z,65
2016-12-18T12:26:32.230Z,65
2016-12-18T12:27:31.948Z,65
2016-12-18T12:28:31.911Z,65
2016-12-18T12:29:32.207Z,65
2016-12-18T12:30:31.894Z,75
2016-12-18T12:31:31.883Z,65
2016-12-18T12:32:31.874Z,65
2016-12-18T12:33:31.864Z,70
2016-12-18T12:34:31.857Z,65
2016-12-18T12:35:31.844Z,70
2016-12-18T12:36:31.835Z,65
2016-12-18T12:37:31.829Z,55
2016-12-18T12:38:32.133Z,55
2016-12-18T12:39:31.808Z,65
2016-12-18T12:40:31.793Z,65
2016-12-18T12:41:31.785Z,65
2016-12-18T12:42:31.775Z,65
2016-12-18T12:43:31.770Z,70
2016-12-18T12:44:31.758Z,65
2016-12-18T12:45:31.775Z,70
2016-12-18T12:46:31.736Z,70
2016-12-18T12:47:31.726Z,65
2016-12-18T12:48:31.715Z,60
2016-12-18T12:49:31.715Z,60
2016-12-18T12:50:31.696Z,60
2016-12-18T12:51:31.695Z,55
2016-12-18T12:52:31.680Z,60
2016-12-18T12:53:31.670Z,60
2016-12-18T12:54:31.967Z,65
2016-12-18T12:55:31.650Z,65
2016-12-18T12:56:31.644Z,65
2016-12-18T12:57:31.631Z,65
2016-12-18T12:58:31.626Z,65
2016-12-18T12:59:31.623Z,65
2016-12-18T13:00:31.603Z,65
2016-12-18T13:01:31.589Z,65
2016-12-18T13:02:31.597Z,65
2016-12-18T13:03:31.574Z,65
2016-12-18T13:04:31.569Z,65
2016-12-18T13:05:31.857Z,60
2016-12-18T13:06:31.547Z,60
2016-12-18T13:07:31.535Z,60
2016-12-18T13:08:31.534Z,60
2016-12-18T13:09:31.518Z,60
2016-12-18T13:10:31.505Z,60
2016-12-18T13:11:31.500Z,60
2016-12-18T13:12:31.494Z,55
2016-12-18T13:13:31.479Z,50
2016-12-18T13:14:31.771Z,45
2016-12-18T13:15:31.456Z,45
2016-12-18T13:16:31.447Z,45
2016-12-18T13:17:31.437Z,45
2016-12-18T13:18:31.434Z,50
2016-12-18T13:19:31.419Z,45
2016-12-18T13:20:31.408Z,45
2016-12-18T13:21:31.400Z,40
2016-12-18T13:22:31.394Z,45
2016-12-18T13:23:31.381Z,50
2016-12-18T13:24:31.369Z,45
2016-12-18T13:25:31.360Z,40
2016-12-18T13:26:31.352Z,40
2016-12-18T13:27:31.336Z,35
2016-12-18T13:28:31.330Z,35
2016-12-18T13:29:31.323Z,35
2016-12-18T13:30:31.613Z,35
2016-12-18T13:31:31.298Z,35
2016-12-18T13:32:31.291Z,35
2016-12-18T13:33:31.282Z,30
2016-12-18T13:34:31.267Z,35
2016-12-18T13:35:31.267Z,35
2016-12-18T13:36:31.556Z,30
2016-12-18T13:37:31.246Z,30
2016-12-18T13:38:31.232Z,30
2016-12-18T13:39:31.229Z,30
2016-12-18T13:40:31.212Z,25
2016-12-18T13:41:31.207Z,20
2016-12-18T13:42:31.194Z,20
2016-12-18T13:43:31.182Z,20
2016-12-18T13:44:31.173Z,15
2016-12-18T13:45:31.169Z,15
2016-12-18T13:46:31.154Z,15
2016-12-18T13:47:31.171Z,15
2016-12-18T13:48:31.134Z,20
2016-12-18T13:49:31.129Z,20
2016-12-18T13:50:31.117Z,20
2016-12-18T13:51:31.109Z,20
2016-12-18T13:52:31.097Z,15
2016-12-18T13:53:31.084Z,15
2016-12-18T13:54:31.073Z,15
2016-12-18T13:55:31.069Z,15
2016-12-18T13:56:31.358Z,10
2016-12-18T13:57:31.045Z,15
2016-12-18T13:58:31.059Z,15
2016-12-18T13:59:31.028Z,15
2016-12-18T14:00:31.020Z,15
2016-12-18T14:01:31.008Z,15
2016-12-18T14:02:31.000Z,15
2016-12-18T14:03:30.988Z,20
2016-12-18T14:04:30.978Z,15
2016-12-18T14:05:30.970Z,20
2016-12-18T14:06:30.958Z,20
2016-12-18T14:07:30.948Z,15
2016-12-18T14:08:30.937Z,15
2016-12-18T14:09:30.932Z,15
2016-12-18T14:10:30.922Z,10
2016-12-18T14:11:30.912Z,15
2016-12-18T14:12:30.903Z,10
2016-12-18T14:13:30.891Z,15
2016-12-18T14:14:30.881Z,15
2016-12-18T14:15:30.872Z,15
2016-12-18T14:16:30.872Z,10
2016-12-18T14:17:30.854Z,10
2016-12-18T14:18:30.840Z,15
2016-12-18T14:19:30.834Z,10
2016-12-18T14:20:31.126Z,10
2016-12-18T14:21:30.811Z,15
2016-12-18T14:22:30.805Z,15
2016-12-18T14:23:30.794Z,15
2016-12-18T14:24:30.785Z,15
2016-12-18T14:25:30.781Z,15
2016-12-18T14:26:31.072Z,15
2016-12-18T14:27:30.757Z,15
2016-12-18T14:28:30.748Z,15
2016-12-18T14:29:30.742Z,15
2016-12-18T14:30:30.730Z,10